sensor_id;sensor_type;location;lat;lon;timestamp;P1;durP1;ratioP1;P2;durP2;ratioP2
60819;SDS011;46641;48.904;9.126;2023-03-01T00:02:44;11.95;;;10.75;;
60819;SDS011;46641;48.904;9.126;2023-03-01T00:07:35;12.52;;;10.52;;
60819;SDS011;46641;48.904;9.126;2023-03-01T00:12:25;12.45;;;10.02;;
60819;SDS011;46641;48.904;9.126;2023-03-01T00:17:15;10.70;;;9.23;;
60819;SDS011;46641;48.904;9.126;2023-03-01T00:22:05;10.40;;;9.30;;
60819;SDS011;46641;48.904;9.126;2023-03-01T00:26:56;11.98;;;9.27;;
60819;SDS011;46641;48.904;9.126;2023-03-01T00:31:46;11.20;;;9.37;;
60819;SDS011;46641;48.904;9.126;2023-03-01T00:36:36;11.10;;;9.73;;
60819;SDS011;46641;48.904;9.126;2023-03-01T00:41:27;12.03;;;10.33;;
60819;SDS011;46641;48.904;9.126;2023-03-01T00:46:19;14.53;;;11.10;;
60819;SDS011;46641;48.904;9.126;2023-03-01T00:51:12;12.07;;;8.97;;
60819;SDS011;46641;48.904;9.126;2023-03-01T00:56:04;10.27;;;8.97;;
60819;SDS011;46641;48.904;9.126;2023-03-01T01:00:56;11.57;;;9.03;;
60819;SDS011;46641;48.904;9.126;2023-03-01T01:05:46;11.83;;;9.33;;
60819;SDS011;46641;48.904;9.126;2023-03-01T01:10:36;12.90;;;10.00;;
60819;SDS011;46641;48.904;9.126;2023-03-01T01:15:27;12.23;;;9.43;;
60819;SDS011;46641;48.904;9.126;2023-03-01T01:20:17;10.07;;;8.93;;
60819;SDS011;46641;48.904;9.126;2023-03-01T01:25:07;8.77;;;7.87;;
60819;SDS011;46641;48.904;9.126;2023-03-01T01:29:58;10.77;;;8.80;;
60819;SDS011;46641;48.904;9.126;2023-03-01T01:34:48;10.82;;;8.68;;
60819;SDS011;46641;48.904;9.126;2023-03-01T01:39:39;10.40;;;8.10;;
60819;SDS011;46641;48.904;9.126;2023-03-01T01:44:29;9.80;;;8.77;;
60819;SDS011;46641;48.904;9.126;2023-03-01T01:54:52;11.63;;;9.57;;
60819;SDS011;46641;48.904;9.126;2023-03-01T01:59:50;14.03;;;9.60;;
60819;SDS011;46641;48.904;9.126;2023-03-01T02:04:44;10.33;;;8.80;;
60819;SDS011;46641;48.904;9.126;2023-03-01T02:09:34;10.77;;;8.43;;
60819;SDS011;46641;48.904;9.126;2023-03-01T02:14:25;10.03;;;7.63;;
60819;SDS011;46641;48.904;9.126;2023-03-01T02:19:22;12.27;;;9.27;;
60819;SDS011;46641;48.904;9.126;2023-03-01T02:30:01;11.87;;;9.17;;
60819;SDS011;46641;48.904;9.126;2023-03-01T02:34:52;11.73;;;10.50;;
60819;SDS011;46641;48.904;9.126;2023-03-01T02:39:48;10.87;;;9.37;;
60819;SDS011;46641;48.904;9.126;2023-03-01T02:44:43;12.80;;;9.00;;
60819;SDS011;46641;48.904;9.126;2023-03-01T02:49:35;10.67;;;9.03;;
60819;SDS011;46641;48.904;9.126;2023-03-01T02:59:38;10.37;;;8.93;;
60819;SDS011;46641;48.904;9.126;2023-03-01T03:04:30;9.17;;;7.80;;
60819;SDS011;46641;48.904;9.126;2023-03-01T03:09:21;12.10;;;9.50;;
60819;SDS011;46641;48.904;9.126;2023-03-01T03:14:11;11.93;;;8.95;;
60819;SDS011;46641;48.904;9.126;2023-03-01T03:19:03;11.03;;;9.10;;
60819;SDS011;46641;48.904;9.126;2023-03-01T03:23:54;12.07;;;9.50;;
60819;SDS011;46641;48.904;9.126;2023-03-01T03:28:45;10.70;;;8.75;;
60819;SDS011;46641;48.904;9.126;2023-03-01T03:33:36;13.00;;;9.83;;
60819;SDS011;46641;48.904;9.126;2023-03-01T03:38:27;11.03;;;9.90;;
60819;SDS011;46641;48.904;9.126;2023-03-01T03:43:21;12.57;;;8.93;;
60819;SDS011;46641;48.904;9.126;2023-03-01T03:48:13;11.07;;;8.77;;
60819;SDS011;46641;48.904;9.126;2023-03-01T03:53:05;9.17;;;8.13;;
60819;SDS011;46641;48.904;9.126;2023-03-01T03:57:58;12.90;;;10.10;;
60819;SDS011;46641;48.904;9.126;2023-03-01T04:02:52;10.70;;;9.30;;
60819;SDS011;46641;48.904;9.126;2023-03-01T04:07:46;10.43;;;9.07;;
60819;SDS011;46641;48.904;9.126;2023-03-01T04:12:36;11.00;;;8.90;;
60819;SDS011;46641;48.904;9.126;2023-03-01T04:17:26;11.47;;;9.17;;
60819;SDS011;46641;48.904;9.126;2023-03-01T04:22:17;11.27;;;9.03;;
60819;SDS011;46641;48.904;9.126;2023-03-01T04:27:08;10.97;;;9.57;;
60819;SDS011;46641;48.904;9.126;2023-03-01T04:31:58;10.70;;;9.60;;
60819;SDS011;46641;48.904;9.126;2023-03-01T04:36:49;11.63;;;9.18;;
60819;SDS011;46641;48.904;9.126;2023-03-01T04:41:40;11.57;;;9.57;;
60819;SDS011;46641;48.904;9.126;2023-03-01T04:46:30;10.07;;;7.77;;
60819;SDS011;46641;48.904;9.126;2023-03-01T04:51:21;11.73;;;9.17;;
60819;SDS011;46641;48.904;9.126;2023-03-01T04:56:12;10.80;;;8.97;;
60819;SDS011;46641;48.904;9.126;2023-03-01T05:01:09;10.20;;;8.80;;
60819;SDS011;46641;48.904;9.126;2023-03-01T05:06:05;12.23;;;9.83;;
60819;SDS011;46641;48.904;9.126;2023-03-01T05:10:55;11.13;;;9.23;;
60819;SDS011;46641;48.904;9.126;2023-03-01T05:15:46;10.45;;;9.35;;
60819;SDS011;46641;48.904;9.126;2023-03-01T05:20:43;12.57;;;9.00;;
60819;SDS011;46641;48.904;9.126;2023-03-01T05:25:34;11.30;;;9.83;;
60819;SDS011;46641;48.904;9.126;2023-03-01T05:30:30;12.93;;;9.93;;
60819;SDS011;46641;48.904;9.126;2023-03-01T05:35:22;13.03;;;10.60;;
60819;SDS011;46641;48.904;9.126;2023-03-01T05:40:14;12.43;;;9.97;;
60819;SDS011;46641;48.904;9.126;2023-03-01T05:45:06;13.90;;;10.43;;
60819;SDS011;46641;48.904;9.126;2023-03-01T05:49:59;12.53;;;10.13;;
60819;SDS011;46641;48.904;9.126;2023-03-01T05:54:50;15.10;;;11.90;;
60819;SDS011;46641;48.904;9.126;2023-03-01T05:59:40;12.25;;;10.05;;
60819;SDS011;46641;48.904;9.126;2023-03-01T06:04:30;16.92;;;11.05;;
60819;SDS011;46641;48.904;9.126;2023-03-01T06:09:20;13.23;;;10.53;;
60819;SDS011;46641;48.904;9.126;2023-03-01T06:14:11;5.00;;;4.38;;
60819;SDS011;46641;48.904;9.126;2023-03-01T06:19:04;19.33;;;17.23;;
60819;SDS011;46641;48.904;9.126;2023-03-01T06:23:54;15.45;;;12.18;;
60819;SDS011;46641;48.904;9.126;2023-03-01T06:28:45;15.85;;;12.45;;
60819;SDS011;46641;48.904;9.126;2023-03-01T06:33:36;16.83;;;12.07;;
60819;SDS011;46641;48.904;9.126;2023-03-01T06:38:26;13.60;;;11.82;;
60819;SDS011;46641;48.904;9.126;2023-03-01T06:43:16;16.92;;;13.80;;
60819;SDS011;46641;48.904;9.126;2023-03-01T06:48:06;20.97;;;17.80;;
60819;SDS011;46641;48.904;9.126;2023-03-01T06:52:57;16.50;;;14.13;;
60819;SDS011;46641;48.904;9.126;2023-03-01T06:57:48;18.63;;;13.97;;
60819;SDS011;46641;48.904;9.126;2023-03-01T07:02:38;19.45;;;13.40;;
60819;SDS011;46641;48.904;9.126;2023-03-01T07:07:28;16.58;;;13.65;;
60819;SDS011;46641;48.904;9.126;2023-03-01T07:12:19;16.77;;;13.55;;
60819;SDS011;46641;48.904;9.126;2023-03-01T07:17:09;15.70;;;12.82;;
60819;SDS011;46641;48.904;9.126;2023-03-01T07:21:59;15.85;;;13.77;;
60819;SDS011;46641;48.904;9.126;2023-03-01T07:26:50;20.50;;;14.20;;
60819;SDS011;46641;48.904;9.126;2023-03-01T07:31:41;17.63;;;14.03;;
60819;SDS011;46641;48.904;9.126;2023-03-01T07:36:31;18.97;;;14.30;;
60819;SDS011;46641;48.904;9.126;2023-03-01T07:41:21;22.00;;;15.75;;
60819;SDS011;46641;48.904;9.126;2023-03-01T07:46:12;20.20;;;14.83;;
60819;SDS011;46641;48.904;9.126;2023-03-01T07:51:04;18.70;;;13.90;;
60819;SDS011;46641;48.904;9.126;2023-03-01T07:56:02;18.77;;;14.70;;
60819;SDS011;46641;48.904;9.126;2023-03-01T08:00:54;21.47;;;15.43;;
60819;SDS011;46641;48.904;9.126;2023-03-01T08:05:44;23.70;;;16.10;;
60819;SDS011;46641;48.904;9.126;2023-03-01T08:10:35;22.92;;;14.82;;
60819;SDS011;46641;48.904;9.126;2023-03-01T08:15:26;21.43;;;16.53;;
60819;SDS011;46641;48.904;9.126;2023-03-01T08:20:16;25.88;;;16.48;;
60819;SDS011;46641;48.904;9.126;2023-03-01T08:25:07;19.53;;;15.10;;
60819;SDS011;46641;48.904;9.126;2023-03-01T08:29:57;24.77;;;18.17;;
60819;SDS011;46641;48.904;9.126;2023-03-01T08:34:48;20.35;;;15.00;;
60819;SDS011;46641;48.904;9.126;2023-03-01T08:39:38;22.87;;;15.73;;
60819;SDS011;46641;48.904;9.126;2023-03-01T08:44:28;20.15;;;16.05;;
60819;SDS011;46641;48.904;9.126;2023-03-01T08:49:19;20.53;;;15.30;;
60819;SDS011;46641;48.904;9.126;2023-03-01T08:54:14;21.97;;;15.97;;
60819;SDS011;46641;48.904;9.126;2023-03-01T08:59:12;21.13;;;15.23;;
60819;SDS011;46641;48.904;9.126;2023-03-01T09:04:07;19.20;;;16.00;;
60819;SDS011;46641;48.904;9.126;2023-03-01T09:08:57;22.35;;;17.08;;
60819;SDS011;46641;48.904;9.126;2023-03-01T09:13:48;20.17;;;16.15;;
60819;SDS011;46641;48.904;9.126;2023-03-01T09:18:39;22.17;;;16.07;;
60819;SDS011;46641;48.904;9.126;2023-03-01T09:23:29;19.03;;;14.97;;
60819;SDS011;46641;48.904;9.126;2023-03-01T09:28:19;21.45;;;14.98;;
60819;SDS011;46641;48.904;9.126;2023-03-01T09:33:09;24.37;;;18.30;;
60819;SDS011;46641;48.904;9.126;2023-03-01T09:38:04;20.13;;;13.93;;
60819;SDS011;46641;48.904;9.126;2023-03-01T09:43:15;22.80;;;20.08;;
60819;SDS011;46641;48.904;9.126;2023-03-01T09:48:16;23.47;;;15.77;;
60819;SDS011;46641;48.904;9.126;2023-03-01T09:53:18;18.97;;;14.87;;
60819;SDS011;46641;48.904;9.126;2023-03-01T10:03:43;20.63;;;13.97;;
60819;SDS011;46641;48.904;9.126;2023-03-01T10:19:19;18.37;;;14.87;;
60819;SDS011;46641;48.904;9.126;2023-03-01T10:24:34;21.00;;;16.83;;
60819;SDS011;46641;48.904;9.126;2023-03-01T10:29:27;20.70;;;16.90;;
60819;SDS011;46641;48.904;9.126;2023-03-01T10:34:26;18.67;;;15.37;;
60819;SDS011;46641;48.904;9.126;2023-03-01T10:39:18;19.13;;;14.13;;
60819;SDS011;46641;48.904;9.126;2023-03-01T10:44:34;19.83;;;14.83;;
60819;SDS011;46641;48.904;9.126;2023-03-01T10:50:05;18.47;;;13.90;;
60819;SDS011;46641;48.904;9.126;2023-03-01T11:00:20;18.60;;;14.40;;
60819;SDS011;46641;48.904;9.126;2023-03-01T11:05:21;20.10;;;15.40;;
60819;SDS011;46641;48.904;9.126;2023-03-01T11:10:19;19.53;;;14.43;;
60819;SDS011;46641;48.904;9.126;2023-03-01T11:15:25;19.73;;;15.80;;
60819;SDS011;46641;48.904;9.126;2023-03-01T11:20:31;18.93;;;16.93;;
60819;SDS011;46641;48.904;9.126;2023-03-01T11:25:24;15.77;;;13.60;;
60819;SDS011;46641;48.904;9.126;2023-03-01T11:30:21;18.93;;;15.00;;
60819;SDS011;46641;48.904;9.126;2023-03-01T11:35:17;17.07;;;14.03;;
60819;SDS011;46641;48.904;9.126;2023-03-01T11:40:33;20.00;;;17.95;;
60819;SDS011;46641;48.904;9.126;2023-03-01T11:45:28;18.17;;;15.03;;
60819;SDS011;46641;48.904;9.126;2023-03-01T11:50:35;17.87;;;14.57;;
60819;SDS011;46641;48.904;9.126;2023-03-01T11:55:50;15.80;;;13.63;;
60819;SDS011;46641;48.904;9.126;2023-03-01T12:38:00;18.57;;;14.40;;
60819;SDS011;46641;48.904;9.126;2023-03-01T12:53:29;17.57;;;14.60;;
60819;SDS011;46641;48.904;9.126;2023-03-01T13:08:13;19.17;;;14.67;;
60819;SDS011;46641;48.904;9.126;2023-03-01T13:13:19;17.37;;;13.70;;
60819;SDS011;46641;48.904;9.126;2023-03-01T13:39:00;19.00;;;15.97;;
60819;SDS011;46641;48.904;9.126;2023-03-01T13:43:45;19.47;;;16.53;;
60819;SDS011;46641;48.904;9.126;2023-03-01T13:48:37;21.08;;;18.88;;
60819;SDS011;46641;48.904;9.126;2023-03-01T13:53:30;21.17;;;16.77;;
60819;SDS011;46641;48.904;9.126;2023-03-01T13:58:26;18.90;;;13.67;;
60819;SDS011;46641;48.904;9.126;2023-03-01T14:08:21;16.37;;;14.57;;
60819;SDS011;46641;48.904;9.126;2023-03-01T14:13:20;18.67;;;14.50;;
60819;SDS011;46641;48.904;9.126;2023-03-01T14:23:23;16.77;;;13.70;;
60819;SDS011;46641;48.904;9.126;2023-03-01T14:33:18;19.73;;;15.93;;
60819;SDS011;46641;48.904;9.126;2023-03-01T14:38:30;17.27;;;15.43;;
60819;SDS011;46641;48.904;9.126;2023-03-01T14:43:24;19.10;;;15.27;;
60819;SDS011;46641;48.904;9.126;2023-03-01T14:48:17;19.20;;;14.80;;
60819;SDS011;46641;48.904;9.126;2023-03-01T14:53:42;19.07;;;15.63;;
60819;SDS011;46641;48.904;9.126;2023-03-01T14:58:26;13.50;;;11.87;;
60819;SDS011;46641;48.904;9.126;2023-03-01T15:03:27;21.40;;;19.17;;
60819;SDS011;46641;48.904;9.126;2023-03-01T15:08:24;19.00;;;13.93;;
60819;SDS011;46641;48.904;9.126;2023-03-01T15:13:22;20.97;;;16.17;;
60819;SDS011;46641;48.904;9.126;2023-03-01T15:18:18;19.33;;;15.77;;
60819;SDS011;46641;48.904;9.126;2023-03-01T15:23:24;16.97;;;14.50;;
60819;SDS011;46641;48.904;9.126;2023-03-01T15:28:18;19.13;;;14.93;;
60819;SDS011;46641;48.904;9.126;2023-03-01T15:33:17;16.43;;;14.70;;
60819;SDS011;46641;48.904;9.126;2023-03-01T15:43:36;18.97;;;17.07;;
60819;SDS011;46641;48.904;9.126;2023-03-01T15:48:36;19.92;;;17.92;;
60819;SDS011;46641;48.904;9.126;2023-03-01T15:53:27;19.37;;;17.27;;
60819;SDS011;46641;48.904;9.126;2023-03-01T15:58:22;18.97;;;16.70;;
60819;SDS011;46641;48.904;9.126;2023-03-01T16:03:14;18.73;;;16.37;;
60819;SDS011;46641;48.904;9.126;2023-03-01T16:08:11;16.33;;;14.63;;
60819;SDS011;46641;48.904;9.126;2023-03-01T16:13:01;19.73;;;17.30;;
60819;SDS011;46641;48.904;9.126;2023-03-01T16:17:51;19.23;;;16.73;;
60819;SDS011;46641;48.904;9.126;2023-03-01T16:22:42;15.97;;;13.73;;
60819;SDS011;46641;48.904;9.126;2023-03-01T16:27:33;16.63;;;13.83;;
60819;SDS011;46641;48.904;9.126;2023-03-01T16:32:23;18.27;;;14.77;;
60819;SDS011;46641;48.904;9.126;2023-03-01T16:37:14;17.83;;;13.60;;
60819;SDS011;46641;48.904;9.126;2023-03-01T16:42:05;18.45;;;16.55;;
60819;SDS011;46641;48.904;9.126;2023-03-01T16:46:55;17.70;;;15.63;;
60819;SDS011;46641;48.904;9.126;2023-03-01T16:51:46;16.13;;;13.57;;
60819;SDS011;46641;48.904;9.126;2023-03-01T16:56:36;19.37;;;17.27;;
60819;SDS011;46641;48.904;9.126;2023-03-01T17:01:28;17.60;;;14.20;;
60819;SDS011;46641;48.904;9.126;2023-03-01T17:06:27;16.33;;;12.87;;
60819;SDS011;46641;48.904;9.126;2023-03-01T17:11:18;19.45;;;14.88;;
60819;SDS011;46641;48.904;9.126;2023-03-01T17:16:10;15.13;;;12.60;;
60819;SDS011;46641;48.904;9.126;2023-03-01T17:21:02;15.50;;;12.50;;
60819;SDS011;46641;48.904;9.126;2023-03-01T17:25:54;17.87;;;15.00;;
60819;SDS011;46641;48.904;9.126;2023-03-01T17:30:44;17.33;;;14.27;;
60819;SDS011;46641;48.904;9.126;2023-03-01T17:35:37;17.13;;;14.10;;
60819;SDS011;46641;48.904;9.126;2023-03-01T17:40:27;17.83;;;13.83;;
60819;SDS011;46641;48.904;9.126;2023-03-01T17:45:18;18.43;;;14.70;;
60819;SDS011;46641;48.904;9.126;2023-03-01T17:50:08;19.08;;;13.35;;
60819;SDS011;46641;48.904;9.126;2023-03-01T17:54:59;16.47;;;14.43;;
60819;SDS011;46641;48.904;9.126;2023-03-01T17:59:49;16.63;;;13.67;;
60819;SDS011;46641;48.904;9.126;2023-03-01T18:04:39;20.53;;;15.43;;
60819;SDS011;46641;48.904;9.126;2023-03-01T18:09:30;19.07;;;14.23;;
60819;SDS011;46641;48.904;9.126;2023-03-01T18:14:20;20.98;;;15.38;;
60819;SDS011;46641;48.904;9.126;2023-03-01T18:19:11;21.37;;;16.37;;
60819;SDS011;46641;48.904;9.126;2023-03-01T18:24:01;17.43;;;13.60;;
60819;SDS011;46641;48.904;9.126;2023-03-01T18:28:52;18.80;;;14.27;;
60819;SDS011;46641;48.904;9.126;2023-03-01T18:33:45;15.63;;;11.90;;
60819;SDS011;46641;48.904;9.126;2023-03-01T18:38:38;16.67;;;12.90;;
60819;SDS011;46641;48.904;9.126;2023-03-01T18:43:28;17.07;;;13.57;;
60819;SDS011;46641;48.904;9.126;2023-03-01T18:48:21;18.97;;;14.43;;
60819;SDS011;46641;48.904;9.126;2023-03-01T18:53:11;21.02;;;15.73;;
60819;SDS011;46641;48.904;9.126;2023-03-01T18:58:02;16.88;;;13.70;;
60819;SDS011;46641;48.904;9.126;2023-03-01T19:02:52;15.23;;;13.07;;
60819;SDS011;46641;48.904;9.126;2023-03-01T19:07:43;15.80;;;12.93;;
60819;SDS011;46641;48.904;9.126;2023-03-01T19:12:34;17.90;;;14.33;;
60819;SDS011;46641;48.904;9.126;2023-03-01T19:17:25;18.43;;;14.33;;
60819;SDS011;46641;48.904;9.126;2023-03-01T19:22:19;18.47;;;14.33;;
60819;SDS011;46641;48.904;9.126;2023-03-01T19:27:09;18.90;;;15.50;;
60819;SDS011;46641;48.904;9.126;2023-03-01T19:32:00;18.57;;;14.33;;
60819;SDS011;46641;48.904;9.126;2023-03-01T19:36:50;19.00;;;14.60;;
60819;SDS011;46641;48.904;9.126;2023-03-01T19:41:41;19.37;;;13.93;;
60819;SDS011;46641;48.904;9.126;2023-03-01T19:46:32;18.53;;;14.80;;
60819;SDS011;46641;48.904;9.126;2023-03-01T19:51:23;17.77;;;12.83;;
60819;SDS011;46641;48.904;9.126;2023-03-01T19:56:13;18.17;;;14.00;;
60819;SDS011;46641;48.904;9.126;2023-03-01T20:01:03;16.87;;;13.27;;
60819;SDS011;46641;48.904;9.126;2023-03-01T20:05:54;18.30;;;14.17;;
60819;SDS011;46641;48.904;9.126;2023-03-01T20:10:45;17.70;;;13.63;;
60819;SDS011;46641;48.904;9.126;2023-03-01T20:15:35;22.80;;;15.27;;
60819;SDS011;46641;48.904;9.126;2023-03-01T20:20:27;19.57;;;13.77;;
60819;SDS011;46641;48.904;9.126;2023-03-01T20:25:18;20.60;;;13.63;;
60819;SDS011;46641;48.904;9.126;2023-03-01T20:30:08;18.58;;;14.30;;
60819;SDS011;46641;48.904;9.126;2023-03-01T20:34:59;16.00;;;13.10;;
60819;SDS011;46641;48.904;9.126;2023-03-01T20:39:49;22.48;;;16.92;;
60819;SDS011;46641;48.904;9.126;2023-03-01T20:44:39;18.17;;;14.87;;
60819;SDS011;46641;48.904;9.126;2023-03-01T20:49:33;19.07;;;14.93;;
60819;SDS011;46641;48.904;9.126;2023-03-01T20:54:23;19.40;;;14.90;;
60819;SDS011;46641;48.904;9.126;2023-03-01T20:59:13;18.67;;;14.02;;
60819;SDS011;46641;48.904;9.126;2023-03-01T21:04:04;16.53;;;13.43;;
60819;SDS011;46641;48.904;9.126;2023-03-01T21:08:55;17.45;;;12.77;;
60819;SDS011;46641;48.904;9.126;2023-03-01T21:13:46;14.87;;;12.47;;
60819;SDS011;46641;48.904;9.126;2023-03-01T21:18:36;16.87;;;13.27;;
60819;SDS011;46641;48.904;9.126;2023-03-01T21:23:27;17.52;;;13.55;;
60819;SDS011;46641;48.904;9.126;2023-03-01T21:28:19;18.13;;;13.70;;
60819;SDS011;46641;48.904;9.126;2023-03-01T21:33:09;18.90;;;14.40;;
60819;SDS011;46641;48.904;9.126;2023-03-01T21:37:59;18.33;;;12.95;;
60819;SDS011;46641;48.904;9.126;2023-03-01T21:42:49;14.93;;;13.30;;
60819;SDS011;46641;48.904;9.126;2023-03-01T21:47:40;16.53;;;12.70;;
60819;SDS011;46641;48.904;9.126;2023-03-01T21:52:30;17.95;;;13.80;;
60819;SDS011;46641;48.904;9.126;2023-03-01T21:57:20;17.65;;;13.70;;
60819;SDS011;46641;48.904;9.126;2023-03-01T22:02:11;16.13;;;13.17;;
60819;SDS011;46641;48.904;9.126;2023-03-01T22:07:03;20.17;;;14.07;;
60819;SDS011;46641;48.904;9.126;2023-03-01T22:11:53;17.40;;;14.05;;
60819;SDS011;46641;48.904;9.126;2023-03-01T22:16:51;21.83;;;14.43;;
60819;SDS011;46641;48.904;9.126;2023-03-01T22:21:43;18.13;;;13.70;;
60819;SDS011;46641;48.904;9.126;2023-03-01T22:26:37;16.00;;;12.87;;
60819;SDS011;46641;48.904;9.126;2023-03-01T22:31:31;16.93;;;13.83;;
60819;SDS011;46641;48.904;9.126;2023-03-01T22:36:21;20.93;;;15.13;;
60819;SDS011;46641;48.904;9.126;2023-03-01T22:41:12;18.97;;;14.20;;
60819;SDS011;46641;48.904;9.126;2023-03-01T22:46:12;18.13;;;14.83;;
60819;SDS011;46641;48.904;9.126;2023-03-01T22:51:05;18.30;;;13.37;;
60819;SDS011;46641;48.904;9.126;2023-03-01T22:55:55;17.53;;;14.70;;
60819;SDS011;46641;48.904;9.126;2023-03-01T23:00:45;16.67;;;13.33;;
60819;SDS011;46641;48.904;9.126;2023-03-01T23:05:36;16.07;;;13.27;;
60819;SDS011;46641;48.904;9.126;2023-03-01T23:10:26;17.03;;;12.57;;
60819;SDS011;46641;48.904;9.126;2023-03-01T23:15:16;16.50;;;13.02;;
60819;SDS011;46641;48.904;9.126;2023-03-01T23:20:07;17.40;;;14.10;;
60819;SDS011;46641;48.904;9.126;2023-03-01T23:25:03;16.83;;;12.83;;
60819;SDS011;46641;48.904;9.126;2023-03-01T23:29:54;17.30;;;13.03;;
60819;SDS011;46641;48.904;9.126;2023-03-01T23:34:44;16.45;;;13.48;;
60819;SDS011;46641;48.904;9.126;2023-03-01T23:39:35;15.83;;;13.03;;
60819;SDS011;46641;48.904;9.126;2023-03-01T23:44:26;16.87;;;12.27;;
60819;SDS011;46641;48.904;9.126;2023-03-01T23:49:19;16.20;;;12.90;;
60819;SDS011;46641;48.904;9.126;2023-03-01T23:54:11;15.87;;;13.33;;
60819;SDS011;46641;48.904;9.126;2023-03-01T23:59:05;15.23;;;11.63;;
